sensor_id;sensor_type;location;lat;lon;timestamp;P1;durP1;ratioP1;P2;durP2;ratioP2
72198;SDS011;60103;51.014;16.992;2023-04-12T00:00:31;8.40;;;2.40;;
72198;SDS011;60103;51.014;16.992;2023-04-12T00:03:14;8.70;;;2.50;;
72198;SDS011;60103;51.014;16.992;2023-04-12T00:05:48;9.50;;;2.60;;
72198;SDS011;60103;51.014;16.992;2023-04-12T00:08:22;8.60;;;2.60;;
72198;SDS011;60103;51.014;16.992;2023-04-12T00:11:01;7.80;;;2.10;;
72198;SDS011;60103;51.014;16.992;2023-04-12T00:13:30;8.10;;;2.70;;
72198;SDS011;60103;51.014;16.992;2023-04-12T00:16:00;9.30;;;3.00;;
72198;SDS011;60103;51.014;16.992;2023-04-12T00:18:29;8.10;;;2.10;;
72198;SDS011;60103;51.014;16.992;2023-04-12T00:20:58;9.40;;;2.60;;
72198;SDS011;60103;51.014;16.992;2023-04-12T00:23:27;8.40;;;2.30;;
72198;SDS011;60103;51.014;16.992;2023-04-12T00:25:56;8.60;;;2.50;;
72198;SDS011;60103;51.014;16.992;2023-04-12T00:28:25;8.90;;;2.40;;
72198;SDS011;60103;51.014;16.992;2023-04-12T00:30:55;8.40;;;3.00;;
72198;SDS011;60103;51.014;16.992;2023-04-12T00:33:24;8.80;;;2.50;;
72198;SDS011;60103;51.014;16.992;2023-04-12T00:35:53;8.80;;;2.80;;
72198;SDS011;60103;51.014;16.992;2023-04-12T00:38:22;9.10;;;3.00;;
72198;SDS011;60103;51.014;16.992;2023-04-12T00:40:51;9.70;;;2.80;;
72198;SDS011;60103;51.014;16.992;2023-04-12T00:43:20;8.80;;;2.70;;
72198;SDS011;60103;51.014;16.992;2023-04-12T00:45:48;8.00;;;2.70;;
72198;SDS011;60103;51.014;16.992;2023-04-12T00:48:18;9.50;;;2.50;;
72198;SDS011;60103;51.014;16.992;2023-04-12T00:50:47;7.20;;;2.00;;
72198;SDS011;60103;51.014;16.992;2023-04-12T00:53:16;10.10;;;2.50;;
72198;SDS011;60103;51.014;16.992;2023-04-12T00:55:45;6.70;;;2.10;;
72198;SDS011;60103;51.014;16.992;2023-04-12T00:58:15;9.10;;;2.20;;
72198;SDS011;60103;51.014;16.992;2023-04-12T01:00:44;8.00;;;2.40;;
72198;SDS011;60103;51.014;16.992;2023-04-12T01:03:18;11.30;;;3.00;;
72198;SDS011;60103;51.014;16.992;2023-04-12T01:09:05;9.60;;;2.70;;
72198;SDS011;60103;51.014;16.992;2023-04-12T01:15:10;8.50;;;2.80;;
72198;SDS011;60103;51.014;16.992;2023-04-12T01:20:20;10.00;;;2.90;;
72198;SDS011;60103;51.014;16.992;2023-04-12T01:23:05;8.10;;;2.80;;
72198;SDS011;60103;51.014;16.992;2023-04-12T01:28:34;8.30;;;2.50;;
72198;SDS011;60103;51.014;16.992;2023-04-12T01:31:05;8.50;;;2.60;;
72198;SDS011;60103;51.014;16.992;2023-04-12T01:33:36;11.50;;;2.70;;
72198;SDS011;60103;51.014;16.992;2023-04-12T01:36:10;7.80;;;2.50;;
72198;SDS011;60103;51.014;16.992;2023-04-12T01:38:41;9.00;;;2.30;;
72198;SDS011;60103;51.014;16.992;2023-04-12T01:41:11;8.00;;;2.20;;
72198;SDS011;60103;51.014;16.992;2023-04-12T01:43:41;8.50;;;2.70;;
72198;SDS011;60103;51.014;16.992;2023-04-12T01:46:11;7.70;;;1.80;;
72198;SDS011;60103;51.014;16.992;2023-04-12T01:48:51;10.20;;;2.50;;
72198;SDS011;60103;51.014;16.992;2023-04-12T01:54:07;7.10;;;2.40;;
72198;SDS011;60103;51.014;16.992;2023-04-12T01:56:42;8.90;;;2.30;;
72198;SDS011;60103;51.014;16.992;2023-04-12T01:59:13;6.40;;;1.80;;
72198;SDS011;60103;51.014;16.992;2023-04-12T02:01:43;7.80;;;2.50;;
72198;SDS011;60103;51.014;16.992;2023-04-12T02:04:15;7.10;;;2.20;;
72198;SDS011;60103;51.014;16.992;2023-04-12T02:06:46;8.90;;;2.10;;
72198;SDS011;60103;51.014;16.992;2023-04-12T02:09:15;9.80;;;2.80;;
72198;SDS011;60103;51.014;16.992;2023-04-12T02:11:48;7.40;;;2.40;;
72198;SDS011;60103;51.014;16.992;2023-04-12T02:14:17;10.90;;;3.10;;
72198;SDS011;60103;51.014;16.992;2023-04-12T02:16:46;7.70;;;2.50;;
72198;SDS011;60103;51.014;16.992;2023-04-12T02:19:15;10.00;;;2.50;;
72198;SDS011;60103;51.014;16.992;2023-04-12T02:21:45;8.90;;;2.60;;
72198;SDS011;60103;51.014;16.992;2023-04-12T02:24:14;7.70;;;2.30;;
72198;SDS011;60103;51.014;16.992;2023-04-12T02:26:44;10.50;;;2.50;;
72198;SDS011;60103;51.014;16.992;2023-04-12T02:29:14;8.10;;;2.40;;
72198;SDS011;60103;51.014;16.992;2023-04-12T02:31:46;8.30;;;3.00;;
72198;SDS011;60103;51.014;16.992;2023-04-12T02:34:15;8.10;;;3.00;;
72198;SDS011;60103;51.014;16.992;2023-04-12T02:36:49;8.40;;;2.60;;
72198;SDS011;60103;51.014;16.992;2023-04-12T02:39:18;8.70;;;2.50;;
72198;SDS011;60103;51.014;16.992;2023-04-12T02:41:50;10.40;;;3.40;;
72198;SDS011;60103;51.014;16.992;2023-04-12T02:44:20;9.30;;;3.10;;
72198;SDS011;60103;51.014;16.992;2023-04-12T02:47:05;8.60;;;2.50;;
72198;SDS011;60103;51.014;16.992;2023-04-12T02:49:35;10.40;;;2.90;;
72198;SDS011;60103;51.014;16.992;2023-04-12T02:52:05;8.90;;;2.90;;
72198;SDS011;60103;51.014;16.992;2023-04-12T02:54:40;9.60;;;2.70;;
72198;SDS011;60103;51.014;16.992;2023-04-12T02:57:14;9.00;;;2.80;;
72198;SDS011;60103;51.014;16.992;2023-04-12T02:59:46;8.20;;;2.30;;
72198;SDS011;60103;51.014;16.992;2023-04-12T03:02:21;7.80;;;2.70;;
72198;SDS011;60103;51.014;16.992;2023-04-12T03:04:52;8.10;;;2.60;;
72198;SDS011;60103;51.014;16.992;2023-04-12T03:07:25;8.40;;;2.60;;
72198;SDS011;60103;51.014;16.992;2023-04-12T03:09:56;8.20;;;2.90;;
72198;SDS011;60103;51.014;16.992;2023-04-12T03:12:25;8.00;;;2.30;;
72198;SDS011;60103;51.014;16.992;2023-04-12T03:15:10;7.20;;;2.20;;
72198;SDS011;60103;51.014;16.992;2023-04-12T03:17:42;8.60;;;2.30;;
72198;SDS011;60103;51.014;16.992;2023-04-12T03:20:12;8.10;;;2.60;;
72198;SDS011;60103;51.014;16.992;2023-04-12T03:22:46;13.50;;;3.60;;
72198;SDS011;60103;51.014;16.992;2023-04-12T03:25:15;10.30;;;3.30;;
72198;SDS011;60103;51.014;16.992;2023-04-12T03:27:51;9.70;;;3.10;;
72198;SDS011;60103;51.014;16.992;2023-04-12T03:30:22;11.10;;;3.50;;
72198;SDS011;60103;51.014;16.992;2023-04-12T03:32:53;9.70;;;3.30;;
72198;SDS011;60103;51.014;16.992;2023-04-12T03:35:23;11.50;;;3.60;;
72198;SDS011;60103;51.014;16.992;2023-04-12T03:37:52;12.60;;;3.80;;
72198;SDS011;60103;51.014;16.992;2023-04-12T03:40:21;11.90;;;5.20;;
72198;SDS011;60103;51.014;16.992;2023-04-12T03:42:56;9.30;;;2.80;;
72198;SDS011;60103;51.014;16.992;2023-04-12T03:45:28;8.80;;;3.10;;
72198;SDS011;60103;51.014;16.992;2023-04-12T03:47:59;7.80;;;2.30;;
72198;SDS011;60103;51.014;16.992;2023-04-12T03:50:30;8.70;;;2.80;;
72198;SDS011;60103;51.014;16.992;2023-04-12T03:53:19;8.10;;;2.50;;
72198;SDS011;60103;51.014;16.992;2023-04-12T03:55:49;6.80;;;2.10;;
72198;SDS011;60103;51.014;16.992;2023-04-12T03:58:19;12.00;;;2.80;;
72198;SDS011;60103;51.014;16.992;2023-04-12T04:00:48;8.40;;;2.80;;
72198;SDS011;60103;51.014;16.992;2023-04-12T04:03:17;6.80;;;2.40;;
72198;SDS011;60103;51.014;16.992;2023-04-12T04:05:57;8.40;;;2.40;;
72198;SDS011;60103;51.014;16.992;2023-04-12T04:08:27;6.90;;;2.10;;
72198;SDS011;60103;51.014;16.992;2023-04-12T04:10:56;9.00;;;2.20;;
72198;SDS011;60103;51.014;16.992;2023-04-12T04:13:28;6.90;;;2.30;;
72198;SDS011;60103;51.014;16.992;2023-04-12T04:16:04;8.10;;;2.20;;
72198;SDS011;60103;51.014;16.992;2023-04-12T04:18:34;7.40;;;2.50;;
72198;SDS011;60103;51.014;16.992;2023-04-12T04:21:04;7.70;;;2.80;;
72198;SDS011;60103;51.014;16.992;2023-04-12T04:23:34;8.30;;;2.20;;
72198;SDS011;60103;51.014;16.992;2023-04-12T04:26:06;7.40;;;2.30;;
72198;SDS011;60103;51.014;16.992;2023-04-12T04:28:45;11.10;;;2.20;;
72198;SDS011;60103;51.014;16.992;2023-04-12T04:31:16;8.40;;;2.30;;
72198;SDS011;60103;51.014;16.992;2023-04-12T04:33:48;9.20;;;2.50;;
72198;SDS011;60103;51.014;16.992;2023-04-12T04:36:19;11.30;;;2.50;;
72198;SDS011;60103;51.014;16.992;2023-04-12T04:38:52;12.40;;;4.10;;
72198;SDS011;60103;51.014;16.992;2023-04-12T04:41:35;11.70;;;4.50;;
72198;SDS011;60103;51.014;16.992;2023-04-12T04:44:31;14.10;;;4.40;;
72198;SDS011;60103;51.014;16.992;2023-04-12T04:47:05;10.60;;;4.00;;
72198;SDS011;60103;51.014;16.992;2023-04-12T04:49:36;20.00;;;8.00;;
72198;SDS011;60103;51.014;16.992;2023-04-12T04:52:13;11.70;;;4.80;;
72198;SDS011;60103;51.014;16.992;2023-04-12T04:54:42;9.40;;;2.90;;
72198;SDS011;60103;51.014;16.992;2023-04-12T04:57:11;8.70;;;2.60;;
72198;SDS011;60103;51.014;16.992;2023-04-12T04:59:41;7.30;;;2.60;;
72198;SDS011;60103;51.014;16.992;2023-04-12T05:02:15;9.00;;;3.20;;
72198;SDS011;60103;51.014;16.992;2023-04-12T05:04:45;7.90;;;2.90;;
72198;SDS011;60103;51.014;16.992;2023-04-12T05:07:16;8.50;;;2.70;;
72198;SDS011;60103;51.014;16.992;2023-04-12T05:09:46;8.90;;;3.00;;
72198;SDS011;60103;51.014;16.992;2023-04-12T05:12:16;10.50;;;4.10;;
72198;SDS011;60103;51.014;16.992;2023-04-12T05:14:48;8.40;;;3.00;;
72198;SDS011;60103;51.014;16.992;2023-04-12T05:17:19;8.80;;;3.00;;
72198;SDS011;60103;51.014;16.992;2023-04-12T05:19:48;10.10;;;3.30;;
72198;SDS011;60103;51.014;16.992;2023-04-12T05:22:17;8.90;;;3.20;;
72198;SDS011;60103;51.014;16.992;2023-04-12T05:24:50;11.40;;;4.00;;
72198;SDS011;60103;51.014;16.992;2023-04-12T05:27:19;10.70;;;3.80;;
72198;SDS011;60103;51.014;16.992;2023-04-12T05:29:49;11.60;;;4.20;;
72198;SDS011;60103;51.014;16.992;2023-04-12T05:32:19;10.00;;;3.40;;
72198;SDS011;60103;51.014;16.992;2023-04-12T05:34:48;11.90;;;3.30;;
72198;SDS011;60103;51.014;16.992;2023-04-12T05:37:18;11.80;;;3.70;;
72198;SDS011;60103;51.014;16.992;2023-04-12T05:39:47;10.90;;;3.60;;
72198;SDS011;60103;51.014;16.992;2023-04-12T05:42:18;10.80;;;3.60;;
72198;SDS011;60103;51.014;16.992;2023-04-12T05:44:46;11.30;;;3.70;;
72198;SDS011;60103;51.014;16.992;2023-04-12T05:47:17;10.80;;;3.30;;
72198;SDS011;60103;51.014;16.992;2023-04-12T05:49:47;9.70;;;3.80;;
72198;SDS011;60103;51.014;16.992;2023-04-12T05:52:18;8.80;;;3.50;;
72198;SDS011;60103;51.014;16.992;2023-04-12T05:54:47;10.00;;;3.10;;
72198;SDS011;60103;51.014;16.992;2023-04-12T05:57:16;9.20;;;3.30;;
72198;SDS011;60103;51.014;16.992;2023-04-12T05:59:47;10.50;;;3.50;;
72198;SDS011;60103;51.014;16.992;2023-04-12T06:02:17;11.50;;;3.90;;
72198;SDS011;60103;51.014;16.992;2023-04-12T06:04:46;10.10;;;3.90;;
72198;SDS011;60103;51.014;16.992;2023-04-12T06:07:18;10.60;;;3.60;;
72198;SDS011;60103;51.014;16.992;2023-04-12T06:09:49;11.60;;;4.10;;
72198;SDS011;60103;51.014;16.992;2023-04-12T06:12:18;10.20;;;3.70;;
72198;SDS011;60103;51.014;16.992;2023-04-12T06:14:47;9.50;;;3.40;;
72198;SDS011;60103;51.014;16.992;2023-04-12T06:17:16;10.20;;;3.70;;
72198;SDS011;60103;51.014;16.992;2023-04-12T06:19:45;10.50;;;3.70;;
72198;SDS011;60103;51.014;16.992;2023-04-12T06:22:15;11.10;;;3.80;;
72198;SDS011;60103;51.014;16.992;2023-04-12T06:24:44;10.10;;;3.90;;
72198;SDS011;60103;51.014;16.992;2023-04-12T06:27:13;9.50;;;3.50;;
72198;SDS011;60103;51.014;16.992;2023-04-12T06:29:42;10.20;;;4.20;;
72198;SDS011;60103;51.014;16.992;2023-04-12T06:32:13;9.70;;;3.60;;
72198;SDS011;60103;51.014;16.992;2023-04-12T06:34:42;11.90;;;4.00;;
72198;SDS011;60103;51.014;16.992;2023-04-12T06:37:14;10.50;;;3.80;;
72198;SDS011;60103;51.014;16.992;2023-04-12T06:39:45;10.10;;;3.40;;
72198;SDS011;60103;51.014;16.992;2023-04-12T06:42:14;10.30;;;3.90;;
72198;SDS011;60103;51.014;16.992;2023-04-12T06:44:43;11.60;;;3.70;;
72198;SDS011;60103;51.014;16.992;2023-04-12T06:47:13;10.70;;;4.20;;
72198;SDS011;60103;51.014;16.992;2023-04-12T06:49:43;9.30;;;3.50;;
72198;SDS011;60103;51.014;16.992;2023-04-12T06:52:12;10.20;;;3.60;;
72198;SDS011;60103;51.014;16.992;2023-04-12T06:54:43;9.70;;;3.50;;
72198;SDS011;60103;51.014;16.992;2023-04-12T06:57:11;10.20;;;2.70;;
72198;SDS011;60103;51.014;16.992;2023-04-12T06:59:40;11.30;;;3.50;;
72198;SDS011;60103;51.014;16.992;2023-04-12T07:02:10;9.20;;;3.30;;
72198;SDS011;60103;51.014;16.992;2023-04-12T07:04:39;9.70;;;3.00;;
72198;SDS011;60103;51.014;16.992;2023-04-12T07:07:08;10.90;;;3.60;;
72198;SDS011;60103;51.014;16.992;2023-04-12T07:09:37;9.40;;;3.20;;
72198;SDS011;60103;51.014;16.992;2023-04-12T07:12:06;9.30;;;3.70;;
72198;SDS011;60103;51.014;16.992;2023-04-12T07:14:35;8.90;;;3.70;;
72198;SDS011;60103;51.014;16.992;2023-04-12T07:17:03;11.20;;;3.70;;
72198;SDS011;60103;51.014;16.992;2023-04-12T07:19:33;10.70;;;3.20;;
72198;SDS011;60103;51.014;16.992;2023-04-12T07:22:01;9.00;;;3.60;;
72198;SDS011;60103;51.014;16.992;2023-04-12T07:24:30;10.80;;;3.30;;
72198;SDS011;60103;51.014;16.992;2023-04-12T07:26:59;9.70;;;3.00;;
72198;SDS011;60103;51.014;16.992;2023-04-12T07:29:28;9.80;;;3.60;;
72198;SDS011;60103;51.014;16.992;2023-04-12T07:31:58;9.40;;;3.40;;
72198;SDS011;60103;51.014;16.992;2023-04-12T07:34:28;10.10;;;3.60;;
72198;SDS011;60103;51.014;16.992;2023-04-12T07:36:58;10.30;;;3.30;;
72198;SDS011;60103;51.014;16.992;2023-04-12T07:39:28;8.80;;;3.10;;
72198;SDS011;60103;51.014;16.992;2023-04-12T07:41:57;8.50;;;3.00;;
72198;SDS011;60103;51.014;16.992;2023-04-12T07:44:26;8.80;;;2.90;;
72198;SDS011;60103;51.014;16.992;2023-04-12T07:46:56;9.10;;;3.00;;
72198;SDS011;60103;51.014;16.992;2023-04-12T07:49:25;10.10;;;3.30;;
72198;SDS011;60103;51.014;16.992;2023-04-12T07:51:54;8.40;;;2.60;;
72198;SDS011;60103;51.014;16.992;2023-04-12T07:54:26;9.40;;;2.60;;
72198;SDS011;60103;51.014;16.992;2023-04-12T07:57:01;8.20;;;3.00;;
72198;SDS011;60103;51.014;16.992;2023-04-12T07:59:30;10.00;;;3.40;;
72198;SDS011;60103;51.014;16.992;2023-04-12T08:01:59;9.50;;;3.70;;
72198;SDS011;60103;51.014;16.992;2023-04-12T08:04:29;9.80;;;3.50;;
72198;SDS011;60103;51.014;16.992;2023-04-12T08:06:58;8.60;;;3.00;;
72198;SDS011;60103;51.014;16.992;2023-04-12T08:09:27;9.90;;;3.60;;
72198;SDS011;60103;51.014;16.992;2023-04-12T08:11:56;9.10;;;3.40;;
72198;SDS011;60103;51.014;16.992;2023-04-12T08:14:26;9.70;;;3.90;;
72198;SDS011;60103;51.014;16.992;2023-04-12T08:16:55;12.20;;;3.50;;
72198;SDS011;60103;51.014;16.992;2023-04-12T08:19:24;9.30;;;3.50;;
72198;SDS011;60103;51.014;16.992;2023-04-12T08:21:53;9.40;;;3.60;;
72198;SDS011;60103;51.014;16.992;2023-04-12T08:24:22;10.10;;;3.40;;
72198;SDS011;60103;51.014;16.992;2023-04-12T08:26:51;8.70;;;2.70;;
72198;SDS011;60103;51.014;16.992;2023-04-12T08:29:20;7.20;;;2.20;;
72198;SDS011;60103;51.014;16.992;2023-04-12T08:31:49;8.30;;;2.90;;
72198;SDS011;60103;51.014;16.992;2023-04-12T08:34:19;9.20;;;2.50;;
72198;SDS011;60103;51.014;16.992;2023-04-12T08:36:49;8.50;;;3.00;;
72198;SDS011;60103;51.014;16.992;2023-04-12T08:39:18;7.90;;;2.40;;
72198;SDS011;60103;51.014;16.992;2023-04-12T08:41:46;8.60;;;2.70;;
72198;SDS011;60103;51.014;16.992;2023-04-12T08:44:16;10.20;;;2.60;;
72198;SDS011;60103;51.014;16.992;2023-04-12T08:46:45;9.00;;;2.20;;
72198;SDS011;60103;51.014;16.992;2023-04-12T08:49:15;6.90;;;2.30;;
72198;SDS011;60103;51.014;16.992;2023-04-12T08:51:52;7.20;;;2.50;;
72198;SDS011;60103;51.014;16.992;2023-04-12T08:54:23;8.80;;;2.80;;
72198;SDS011;60103;51.014;16.992;2023-04-12T08:56:57;6.60;;;2.10;;
72198;SDS011;60103;51.014;16.992;2023-04-12T08:59:35;10.20;;;2.30;;
72198;SDS011;60103;51.014;16.992;2023-04-12T09:02:06;7.80;;;2.20;;
72198;SDS011;60103;51.014;16.992;2023-04-12T09:04:45;8.40;;;2.30;;
72198;SDS011;60103;51.014;16.992;2023-04-12T09:07:19;7.90;;;2.70;;
72198;SDS011;60103;51.014;16.992;2023-04-12T09:09:55;7.90;;;2.50;;
72198;SDS011;60103;51.014;16.992;2023-04-12T09:12:25;7.30;;;2.30;;
72198;SDS011;60103;51.014;16.992;2023-04-12T09:15:10;9.10;;;2.40;;
72198;SDS011;60103;51.014;16.992;2023-04-12T09:17:41;9.90;;;2.80;;
72198;SDS011;60103;51.014;16.992;2023-04-12T09:22:45;7.60;;;2.70;;
72198;SDS011;60103;51.014;16.992;2023-04-12T09:25:15;7.10;;;2.70;;
72198;SDS011;60103;51.014;16.992;2023-04-12T09:27:47;8.80;;;2.40;;
72198;SDS011;60103;51.014;16.992;2023-04-12T09:30:18;8.50;;;2.70;;
72198;SDS011;60103;51.014;16.992;2023-04-12T09:32:47;6.50;;;2.80;;
72198;SDS011;60103;51.014;16.992;2023-04-12T09:35:17;7.70;;;2.80;;
72198;SDS011;60103;51.014;16.992;2023-04-12T09:37:47;7.30;;;2.20;;
72198;SDS011;60103;51.014;16.992;2023-04-12T09:40:25;7.80;;;2.30;;
72198;SDS011;60103;51.014;16.992;2023-04-12T09:42:54;9.40;;;2.70;;
72198;SDS011;60103;51.014;16.992;2023-04-12T09:45:24;7.70;;;2.60;;
72198;SDS011;60103;51.014;16.992;2023-04-12T09:47:55;8.40;;;2.50;;
72198;SDS011;60103;51.014;16.992;2023-04-12T09:50:25;7.70;;;2.80;;
72198;SDS011;60103;51.014;16.992;2023-04-12T09:52:57;7.40;;;2.20;;
72198;SDS011;60103;51.014;16.992;2023-04-12T09:55:27;6.90;;;2.00;;
72198;SDS011;60103;51.014;16.992;2023-04-12T09:58:01;7.60;;;2.30;;
72198;SDS011;60103;51.014;16.992;2023-04-12T10:00:31;7.40;;;1.90;;
72198;SDS011;60103;51.014;16.992;2023-04-12T10:03:02;5.30;;;1.60;;
72198;SDS011;60103;51.014;16.992;2023-04-12T10:05:32;7.00;;;2.00;;
72198;SDS011;60103;51.014;16.992;2023-04-12T10:08:01;6.40;;;2.00;;
72198;SDS011;60103;51.014;16.992;2023-04-12T10:10:32;5.70;;;1.90;;
72198;SDS011;60103;51.014;16.992;2023-04-12T10:13:01;9.20;;;2.50;;
72198;SDS011;60103;51.014;16.992;2023-04-12T10:15:31;9.40;;;2.60;;
72198;SDS011;60103;51.014;16.992;2023-04-12T10:18:03;6.10;;;2.10;;
72198;SDS011;60103;51.014;16.992;2023-04-12T10:20:33;8.10;;;2.30;;
72198;SDS011;60103;51.014;16.992;2023-04-12T10:23:04;7.00;;;2.30;;
72198;SDS011;60103;51.014;16.992;2023-04-12T10:25:33;6.70;;;2.10;;
72198;SDS011;60103;51.014;16.992;2023-04-12T10:28:13;7.00;;;2.50;;
72198;SDS011;60103;51.014;16.992;2023-04-12T10:30:44;7.90;;;2.20;;
72198;SDS011;60103;51.014;16.992;2023-04-12T10:33:17;7.10;;;2.10;;
72198;SDS011;60103;51.014;16.992;2023-04-12T10:35:52;8.20;;;2.20;;
72198;SDS011;60103;51.014;16.992;2023-04-12T10:38:26;7.50;;;2.60;;
72198;SDS011;60103;51.014;16.992;2023-04-12T10:41:21;6.70;;;2.40;;
72198;SDS011;60103;51.014;16.992;2023-04-12T10:43:50;8.10;;;2.10;;
72198;SDS011;60103;51.014;16.992;2023-04-12T10:49:10;7.30;;;2.00;;
72198;SDS011;60103;51.014;16.992;2023-04-12T10:56:57;8.70;;;2.10;;
72198;SDS011;60103;51.014;16.992;2023-04-12T10:59:53;7.20;;;2.30;;
72198;SDS011;60103;51.014;16.992;2023-04-12T11:02:26;6.50;;;2.30;;
72198;SDS011;60103;51.014;16.992;2023-04-12T11:07:50;6.90;;;1.80;;
72198;SDS011;60103;51.014;16.992;2023-04-12T11:10:39;5.40;;;1.70;;
72198;SDS011;60103;51.014;16.992;2023-04-12T11:13:15;6.20;;;1.70;;
72198;SDS011;60103;51.014;16.992;2023-04-12T11:15:44;7.50;;;1.70;;
72198;SDS011;60103;51.014;16.992;2023-04-12T11:18:13;9.90;;;1.70;;
72198;SDS011;60103;51.014;16.992;2023-04-12T11:20:42;8.10;;;2.20;;
72198;SDS011;60103;51.014;16.992;2023-04-12T11:23:11;6.60;;;2.00;;
72198;SDS011;60103;51.014;16.992;2023-04-12T11:25:40;6.60;;;2.00;;
72198;SDS011;60103;51.014;16.992;2023-04-12T11:28:15;6.90;;;2.00;;
72198;SDS011;60103;51.014;16.992;2023-04-12T11:30:56;6.70;;;2.10;;
72198;SDS011;60103;51.014;16.992;2023-04-12T11:33:35;6.60;;;1.80;;
72198;SDS011;60103;51.014;16.992;2023-04-12T11:36:06;6.30;;;2.20;;
72198;SDS011;60103;51.014;16.992;2023-04-12T11:38:37;6.70;;;1.90;;
72198;SDS011;60103;51.014;16.992;2023-04-12T11:41:08;6.00;;;2.00;;
72198;SDS011;60103;51.014;16.992;2023-04-12T11:43:37;7.20;;;2.20;;
72198;SDS011;60103;51.014;16.992;2023-04-12T11:46:06;7.30;;;2.30;;
72198;SDS011;60103;51.014;16.992;2023-04-12T11:48:35;6.70;;;2.10;;
72198;SDS011;60103;51.014;16.992;2023-04-12T11:51:21;6.30;;;1.90;;
72198;SDS011;60103;51.014;16.992;2023-04-12T11:53:59;7.20;;;2.00;;
72198;SDS011;60103;51.014;16.992;2023-04-12T11:56:28;8.50;;;1.90;;
72198;SDS011;60103;51.014;16.992;2023-04-12T11:58:57;8.30;;;2.30;;
72198;SDS011;60103;51.014;16.992;2023-04-12T12:01:25;10.90;;;3.20;;
72198;SDS011;60103;51.014;16.992;2023-04-12T12:03:56;6.00;;;1.60;;
72198;SDS011;60103;51.014;16.992;2023-04-12T12:06:27;7.00;;;1.90;;
72198;SDS011;60103;51.014;16.992;2023-04-12T12:08:57;7.30;;;1.90;;
72198;SDS011;60103;51.014;16.992;2023-04-12T12:11:26;7.00;;;1.80;;
72198;SDS011;60103;51.014;16.992;2023-04-12T12:13:55;7.70;;;2.40;;
72198;SDS011;60103;51.014;16.992;2023-04-12T12:16:25;7.10;;;2.00;;
72198;SDS011;60103;51.014;16.992;2023-04-12T12:18:56;6.00;;;1.80;;
72198;SDS011;60103;51.014;16.992;2023-04-12T12:21:25;9.30;;;2.00;;
72198;SDS011;60103;51.014;16.992;2023-04-12T12:23:56;6.00;;;1.60;;
72198;SDS011;60103;51.014;16.992;2023-04-12T12:26:26;10.40;;;1.70;;
72198;SDS011;60103;51.014;16.992;2023-04-12T12:28:56;7.10;;;2.10;;
72198;SDS011;60103;51.014;16.992;2023-04-12T12:31:27;9.10;;;2.20;;
72198;SDS011;60103;51.014;16.992;2023-04-12T12:33:57;5.90;;;1.50;;
72198;SDS011;60103;51.014;16.992;2023-04-12T12:36:33;6.60;;;1.70;;
72198;SDS011;60103;51.014;16.992;2023-04-12T12:39:07;6.90;;;1.90;;
72198;SDS011;60103;51.014;16.992;2023-04-12T12:41:39;6.60;;;1.80;;
72198;SDS011;60103;51.014;16.992;2023-04-12T12:44:09;6.20;;;1.60;;
72198;SDS011;60103;51.014;16.992;2023-04-12T12:46:39;6.40;;;1.90;;
72198;SDS011;60103;51.014;16.992;2023-04-12T12:49:22;7.00;;;1.70;;
72198;SDS011;60103;51.014;16.992;2023-04-12T12:51:51;7.20;;;1.70;;
72198;SDS011;60103;51.014;16.992;2023-04-12T12:54:19;5.90;;;1.70;;
72198;SDS011;60103;51.014;16.992;2023-04-12T12:57:07;6.10;;;1.40;;
72198;SDS011;60103;51.014;16.992;2023-04-12T12:59:36;6.50;;;1.80;;
72198;SDS011;60103;51.014;16.992;2023-04-12T13:02:06;6.80;;;1.60;;
72198;SDS011;60103;51.014;16.992;2023-04-12T13:04:36;6.30;;;1.40;;
72198;SDS011;60103;51.014;16.992;2023-04-12T13:07:05;6.40;;;1.70;;
72198;SDS011;60103;51.014;16.992;2023-04-12T13:09:34;6.90;;;1.80;;
72198;SDS011;60103;51.014;16.992;2023-04-12T13:12:03;7.20;;;2.00;;
72198;SDS011;60103;51.014;16.992;2023-04-12T13:14:32;5.10;;;1.50;;
72198;SDS011;60103;51.014;16.992;2023-04-12T13:17:00;7.00;;;1.50;;
72198;SDS011;60103;51.014;16.992;2023-04-12T13:19:29;6.50;;;1.50;;
72198;SDS011;60103;51.014;16.992;2023-04-12T13:21:58;7.30;;;1.70;;
72198;SDS011;60103;51.014;16.992;2023-04-12T13:24:28;5.00;;;1.40;;
72198;SDS011;60103;51.014;16.992;2023-04-12T13:26:56;5.90;;;1.60;;
72198;SDS011;60103;51.014;16.992;2023-04-12T13:29:25;5.40;;;1.60;;
72198;SDS011;60103;51.014;16.992;2023-04-12T13:31:54;6.20;;;1.50;;
72198;SDS011;60103;51.014;16.992;2023-04-12T13:34:23;5.90;;;1.90;;
72198;SDS011;60103;51.014;16.992;2023-04-12T13:36:53;6.60;;;1.70;;
72198;SDS011;60103;51.014;16.992;2023-04-12T13:39:21;6.40;;;1.90;;
72198;SDS011;60103;51.014;16.992;2023-04-12T13:41:50;6.80;;;1.70;;
72198;SDS011;60103;51.014;16.992;2023-04-12T13:44:19;6.10;;;1.60;;
72198;SDS011;60103;51.014;16.992;2023-04-12T13:46:48;7.50;;;1.90;;
72198;SDS011;60103;51.014;16.992;2023-04-12T13:49:16;6.20;;;1.40;;
72198;SDS011;60103;51.014;16.992;2023-04-12T13:51:45;6.90;;;1.50;;
72198;SDS011;60103;51.014;16.992;2023-04-12T13:54:14;4.90;;;1.10;;
72198;SDS011;60103;51.014;16.992;2023-04-12T13:56:44;8.90;;;1.80;;
72198;SDS011;60103;51.014;16.992;2023-04-12T13:59:13;8.10;;;1.70;;
72198;SDS011;60103;51.014;16.992;2023-04-12T14:01:43;6.20;;;1.60;;
72198;SDS011;60103;51.014;16.992;2023-04-12T14:04:12;5.80;;;1.30;;
72198;SDS011;60103;51.014;16.992;2023-04-12T14:06:41;6.10;;;1.40;;
72198;SDS011;60103;51.014;16.992;2023-04-12T14:09:28;6.80;;;1.70;;
72198;SDS011;60103;51.014;16.992;2023-04-12T14:11:58;5.50;;;1.40;;
72198;SDS011;60103;51.014;16.992;2023-04-12T14:14:28;4.90;;;1.30;;
72198;SDS011;60103;51.014;16.992;2023-04-12T14:16:57;6.00;;;1.10;;
72198;SDS011;60103;51.014;16.992;2023-04-12T14:19:26;6.00;;;1.10;;
72198;SDS011;60103;51.014;16.992;2023-04-12T14:21:55;5.20;;;1.20;;
72198;SDS011;60103;51.014;16.992;2023-04-12T14:24:24;5.90;;;1.30;;
72198;SDS011;60103;51.014;16.992;2023-04-12T14:26:53;6.20;;;1.50;;
72198;SDS011;60103;51.014;16.992;2023-04-12T14:29:24;7.70;;;1.30;;
72198;SDS011;60103;51.014;16.992;2023-04-12T14:31:54;6.00;;;1.40;;
72198;SDS011;60103;51.014;16.992;2023-04-12T14:34:23;6.50;;;1.40;;
72198;SDS011;60103;51.014;16.992;2023-04-12T14:36:52;7.00;;;1.40;;
72198;SDS011;60103;51.014;16.992;2023-04-12T14:39:23;5.30;;;1.30;;
72198;SDS011;60103;51.014;16.992;2023-04-12T14:41:53;6.20;;;1.40;;
72198;SDS011;60103;51.014;16.992;2023-04-12T14:44:24;5.70;;;1.20;;
72198;SDS011;60103;51.014;16.992;2023-04-12T14:46:53;6.40;;;1.40;;
72198;SDS011;60103;51.014;16.992;2023-04-12T14:49:22;6.50;;;1.50;;
72198;SDS011;60103;51.014;16.992;2023-04-12T14:51:52;6.80;;;1.50;;
72198;SDS011;60103;51.014;16.992;2023-04-12T14:54:21;5.10;;;1.20;;
72198;SDS011;60103;51.014;16.992;2023-04-12T14:56:49;7.00;;;1.80;;
72198;SDS011;60103;51.014;16.992;2023-04-12T14:59:23;6.20;;;1.30;;
72198;SDS011;60103;51.014;16.992;2023-04-12T15:01:52;6.10;;;1.10;;
72198;SDS011;60103;51.014;16.992;2023-04-12T15:04:21;6.00;;;1.50;;
72198;SDS011;60103;51.014;16.992;2023-04-12T15:06:50;7.10;;;1.80;;
72198;SDS011;60103;51.014;16.992;2023-04-12T15:09:19;5.90;;;1.50;;
72198;SDS011;60103;51.014;16.992;2023-04-12T15:11:49;6.00;;;1.50;;
72198;SDS011;60103;51.014;16.992;2023-04-12T15:14:19;6.00;;;1.20;;
72198;SDS011;60103;51.014;16.992;2023-04-12T15:16:49;5.50;;;1.50;;
72198;SDS011;60103;51.014;16.992;2023-04-12T15:19:19;6.80;;;1.40;;
72198;SDS011;60103;51.014;16.992;2023-04-12T15:21:52;5.70;;;1.50;;